Dakin Peak, Santa Catalina Island Weather observations

Data are for 10 minute period ending at time listed.
 Day   Time   Solar   Ave.   Ave.  Ave.  Vector    Max.   Stn.    Total
  of    of     Rad.   Air    Rel.  Wind   Wind     Wind   Baro.  Precip.
Year   Day            Temp.  Hum.  Speed  Dir.     Gust   Pres.         
2014   (PST)   W/m2    F      %     mph   deg.      mph    mb.     in.  
------------------------------------------------------------------------
 206    6:00   99.0    71   67.9     7    130.8    11.3    999.0   0.00  
 206    6:10  123.0    72   65.2     8    119.7    11.9    999.0   0.00  
 206    6:20  149.0    73   63.8    10    115.7    11.9    999.0   0.00  
 206    6:30  175.0    72   68.1     7    110.6    10.2    999.0   0.00  
 206    6:40  202.0    73   66.9     7    116.0    10.8    999.0   0.00  
 206    6:50  229.0    74   63.7     9    113.0    13.1    999.0   0.00  
 206    7:00  257.0    75   60.8     9    107.4    13.1    999.0   0.00  
 206    7:10  284.0    74   67.0     6     98.0     9.0    999.0   0.00  
 206    7:20  312.0    75   67.6     3    106.8     7.2    999.0   0.00  
 206    7:30  340.0    76   66.2     4    104.3     7.8    999.0   0.00  
 206    7:40  366.0    75   67.1     6    102.2     9.0    999.0   0.00  
 206    7:50  392.0    74   70.4     6    104.3     8.4    999.0   0.00  
 206    8:00  419.0    76   67.5     5    105.4     8.4    999.0   0.00  
 206    8:10  446.0    77   65.0     5    103.5     8.4    999.0   0.00  
 206    8:20  472.0    78   63.2     5     96.6     8.4    999.0   0.00  
 206    8:30  499.0    76   66.9     5    101.4     8.4    999.0   0.00  
 206    8:40  522.0    77   66.5     4     94.0     7.8    999.0   0.00  
 206    8:50  542.0    78   64.3     6     98.8     8.4    999.0   0.00  
 206    9:00  564.0    78   62.3     6     96.5     9.0    999.0   0.00  
 206    9:10  587.0    77   65.3     6     98.3     9.6    999.0   0.00  
 206    9:20  613.0    78   63.9     6    101.0     9.0    999.0   0.00  
 206    9:30  630.0    79   60.9     6     92.8     9.6    999.0   0.00  
 206    9:40  512.0    78   62.5     5     97.1     7.8    999.0   0.00  
 206    9:50  636.0    79   60.3     6    102.6     9.6    999.0   0.00  
 206   10:00  529.0    80   58.3     7     96.1    11.3    999.0   0.00  
 206   10:10  428.0    78   63.4     6    101.9     9.6    999.0   0.00  
 206   10:20  494.0    78   63.1     4     96.4     6.6    999.0   0.00  
 206   10:30  582.0    80   60.5     6     97.1     7.8    999.0   0.00  
 206   10:40  558.0    78   63.2     6    100.5     9.6    999.0   0.00  
 206   10:50  718.0    78   61.2     6     96.1     8.4    999.0   0.00  
 206   11:00  542.0    81   54.5     7    104.2    10.2    999.0   0.00  
 206   11:10  643.0    82   55.9     7    107.4    10.8    999.0   0.00  
 206   11:20  661.0    80   58.7     6    100.9     9.0    999.0   0.00  
 206   11:30  563.0    79   60.6     6     96.1     9.6    999.0   0.00  
 206   11:40  402.0    77   63.7     6     93.4     9.0    999.0   0.00  
 206   11:50  330.0    74   68.7     6     97.4     9.6    999.0   0.00  
 206   12:00  317.0    74   68.4     5    102.8     7.8    999.0   0.00  
 206   12:10  316.0    75   66.7     5    105.4     9.0    999.0   0.00  
 206   12:20  300.0    74   68.9     5    104.2     7.2    999.0   0.00  
 206   12:30  319.0    74   68.6     8    101.9    10.2    999.0   0.00  
 206   12:40  333.0    74   68.8     4    132.3     6.0    999.0   0.00  
 206   12:50  324.0    73   69.9     4    135.8     7.8    999.0   0.00  
 206   13:00  279.0    75   67.3     3     99.3     6.6    999.0   0.00  
 206   13:10  217.0    74   67.5     5     98.5     7.8    999.0   0.00  
 206   13:20  189.0    73   69.8     3    104.9     6.6    999.0   0.00  
 206   13:30  221.0    73   70.1     3    101.5     6.6    999.0   0.00  
 206   13:40  361.0    74   67.5     5     95.5     9.0    999.0   0.00  
 206   13:50  385.0    73   70.3     4    156.2     7.8    999.0   0.00  
 206   14:00  389.0    75   66.6     3    244.9     6.0    999.0   0.00  
 206   14:10  356.0    77   64.7     4    134.4     7.8    999.0   0.00  
 206   14:20  318.0    78   59.4     5    223.5     9.0    999.0   0.00  
 206   14:30  331.0    76   66.1     5    108.0     7.8    999.0   0.00  
 206   14:40  358.0    74   69.8     7    108.8     9.6    999.0   0.00  
 206   14:50  235.0    74   70.7     4    122.4     8.4    999.0   0.00  
 206   15:00  231.0    75   69.4     4     80.6    10.2    999.0   0.00  
 206   15:10  346.0    73   72.9     6    111.9    11.3    999.0   0.00  
 206   15:20  279.0    72   73.5     4    164.9     7.8    999.0   0.00  
 206   15:30  219.0    72   73.1     4    210.5     7.2    999.0   0.00  
 206   15:40  317.0    73   71.2     4    206.1     8.4    999.0   0.00  
 206   15:50  340.0    76   66.6     5    246.0    10.2    999.0   0.00  
 206   16:00  299.0    77   64.2     5    242.1     8.4    999.0   0.00  
 206   16:10  204.0    74   70.0     3     80.5     6.0    999.0   0.00  
 206   16:20  159.0    77   61.8     3    309.9     6.0    999.0   0.00  
 206   16:30  140.0    81   39.2     5    282.6     7.8    999.0   0.00  
 206   16:40  102.0    81   40.3     4    307.9     6.6    999.0   0.00  
 206   16:50   72.0    79   46.5     3    318.8     5.4    999.0   0.00  
 206   17:00   58.0    80   42.9     3     12.0     4.2    999.0   0.00  
 206   17:10  110.0    74   65.2     3    119.6     7.2    999.0   0.00  
 206   17:20  119.0    73   66.5     3    140.9     7.8    999.0   0.00  
 206   17:30  148.0    75   60.5     3    123.5     7.8    999.0   0.00  
 206   17:40  101.0    68   83.1     6    118.6     8.4    999.0   0.00  
 206   17:50   66.0    68   83.1     6    209.8     9.0    999.0   0.00  
 206   18:00   63.0    70   78.4     4    205.5     7.2    999.0   0.00  
 206   18:10   42.0    70   77.3     5    184.4     7.2    999.0   0.00  
 206   18:20   36.0    70   79.4     4    202.4     7.2    999.0   0.00  
 206   18:30   35.0    68   82.9     3    166.5     5.4    999.0   0.00  
 206   18:40   28.0    71   71.3     2    169.6     4.2    999.0   0.00  
 206   18:50   13.0    72   66.5     3    173.2     6.0    999.0   0.00  
 206   19:00    7.0    72   66.5     4    133.2     5.4    999.0   0.00  
 206   19:10    5.0    73   60.1     3    148.9     4.2    999.0   0.00  
 206   19:20    0.0    73   58.2     4    119.8     5.4    999.0   0.00  
 206   19:30    0.0    71   66.8     5    116.4     6.0    999.0   0.00  
 206   19:40    0.0    71   60.7     5    132.0     6.6    999.0   0.00  
 206   19:50    0.0    70   69.2     5    110.0     6.6    999.0   0.00  
 206   20:00    0.0    69   75.8     4    111.1     6.0    999.0   0.00  
 206   20:10    0.0    70   64.3     5    108.3     7.8    999.0   0.00  
 206   20:20    0.0    70   61.8     6    105.2     9.6    999.0   0.00  
 206   20:30    0.0    69   75.1     6    107.2     8.4    999.0   0.00  
 206   20:40    0.0    68   71.4     6    122.8     8.4    999.0   0.00  
 206   20:50    0.0    69   64.3     5    134.7     7.2    999.0   0.00  
 206   21:00    0.0    69   68.8     4    125.3     6.0    999.0   0.00  
 206   21:10    0.0    69   63.4     4    178.6     6.0    999.0   0.00  
 206   21:20    0.0    70   58.0     5    152.0     7.2    999.0   0.00  
 206   21:30    0.0    72   52.6     5    140.4     7.2    999.0   0.00  
 206   21:40    0.0    67   73.4     3    108.1     5.4    999.0   0.00  
 206   21:50    0.0    69   61.8     3    157.1     6.6    999.0   0.00  
 206   22:00    0.0    71   49.2     6    173.0     9.0    999.0   0.00  
 206   22:10    0.0    72   44.2     6    167.7     8.4    999.0   0.00  
 206   22:20    0.0    70   55.0     5    151.7     8.4    999.0   0.00  
 206   22:30    0.0    70   56.3     5    142.9     7.2    999.0   0.00  
 206   22:40    0.0    67   66.5     5    170.2     8.4    999.0   0.00  
 206   22:50    0.0    70   53.4     7    173.8     9.0    999.0   0.00  
 206   23:00    0.0    69   56.4     7    211.1     9.0    999.0   0.00  
 206   23:10    0.0    69   59.4     4    166.9     8.4    999.0   0.00  
 206   23:20    0.0    68   68.7     3    198.6     5.4    999.0   0.00  
 206   23:30    0.0    64   83.9     4    276.3     8.4    999.0   0.00  
 206   23:40    0.0    64   85.4     4    136.4     6.0    999.0   0.00  
 206   23:50    0.0    63   92.4     8    105.2    12.5    999.0   0.00  
 207    0:00    0.0    63   94.1     4    117.9     7.2    999.0   0.00  
 207    0:10    0.0    63   94.7     6    105.0     9.6    999.0   0.00  
 207    0:20    0.0    63   95.1     8    100.2    12.5    999.0   0.00  
 207    0:30    0.0    63   95.5     6     95.6     9.6    999.0   0.00  
 207    0:40    0.0    63   95.7     6    108.1     9.0    999.0   0.00  
 207    0:50    0.0    63   95.8     5    105.8     7.8    999.0   0.00  
 207    1:00    0.0    60   93.2     4    148.9     6.0    999.0   0.00  
 207    1:10    0.0    65   72.2     5    156.9     9.0    999.0   0.00  
 207    1:20    0.0    66   77.9     6    140.8    10.2    999.0   0.00  
 207    1:30    0.0    70   57.2     6    171.7    10.8    999.0   0.00  
 207    1:40    0.0    69   58.0     6    180.6     9.0    999.0   0.00  
 207    1:50    0.0    66   78.9     4    150.7     7.2    999.0   0.00  
 207    2:00    0.0    69   57.1     6    169.3     8.4    999.0   0.00  
 207    2:10    0.0    72   40.5     8    190.7     9.6    999.0   0.00  
 207    2:20    0.0    73   37.3     7    171.0     9.6    999.0   0.00  
 207    2:30    0.0    74   31.2     7    181.0     9.0    999.0   0.00  
 207    2:40    0.0    72   44.5     5    160.2     7.8    999.0   0.00  
 207    2:50    0.0    64   86.1     4    109.8     5.4    999.0   0.00  
 207    3:00    0.0    64   79.3     3     32.6     6.6    999.0   0.00  
 207    3:10    0.0    64   83.4     4     94.6     7.2    999.0   0.00  
 207    3:20    0.0    64   88.0     5     97.9     6.6    999.0   0.00  
 207    3:30    0.0    66   81.8     4     92.6     5.4    999.0   0.00  
 207    3:40    0.0    66   72.6     4    159.0     6.0    999.0   0.00  
 207    3:50    0.0    70   45.4     6    165.1     7.8    999.0   0.00  
 207    4:00    0.0    70   45.5     6    139.2     7.2    999.0   0.00  
 207    4:10    0.0    67   69.1     5    122.3     7.2    999.0   0.00  
 207    4:20    0.0    66   70.4     4    135.7     5.4    999.0   0.00  
 207    4:30    0.0    65   79.9     3    113.6     5.4    999.0   0.00  
 207    4:40    0.0    62   92.6     4    135.3     7.2    999.0   0.00  
 207    4:50    0.0    64   74.3     5    187.9     6.6    999.0   0.00  
 207    5:00    0.0    68   53.0     6    177.3     8.4    999.0   0.00  
 207    5:10    5.0    74   27.5     8    181.3     9.0    999.0   0.00  
 207    5:20   12.0    76   22.5     7    163.1     9.6    999.0   0.00  
 207    5:30   18.0    76   20.4     8    189.6     9.0    999.0   0.00  
 207    5:40   29.0    76   22.6     5    191.6     8.4    999.0   0.00  
 207    5:50   67.0    76   20.0     4    218.8     5.4    999.0   0.00  

Return to Dakin Peak graphs page.


Western Regional Climate Center,wrcc@dri.edu